Caribbean-star — A8KJ7 — position and weather

sailwx.info

Track history (hours):
 
Tides and Currents Weather Stations Pressure Air Temp Water Temp Dewpoint Dewpoint Depression Visibility Wind Speed Wind Dir Waves Ship Positions

Caribbean-star

Last reported at 2018-Feb-09 23:29 UTC. Time now 2018-Feb-19 16:20 UTC.
Position N 07°00' W 013°14'.
Warning: this ship's position is 9 days out of date.

Length 185 m; draft 8.4 m.

Type: Cargo ship. MMSI: 636013068.

Date/timePositionNaut miles runAvg speedWind from/ knotsBaromVisibWave heightAir tempDewpointWater temp
2018-Feb-09 23:29N 07°00' W 013°14'1115.9
2018-Feb-09 22:47N 07°06' W 013°23'016.3
2018-Feb-09 22:46N 07°06' W 013°24'2815.7
2018-Feb-09 21:00N 07°20' W 013°48'1615.9
2018-Feb-09 20:00N 07°28' W 014°01'815.7
2018-Feb-09 19:30N 07°34' W 014°07'2315.4
2018-Feb-09 18:00N 07°50' W 014°23'815.4
2018-Feb-09 17:30N 07°55' W 014°29'1515.4
2018-Feb-09 16:30N 08°06' W 014°40'3915.7
2018-Feb-09 14:00N 08°34' W 015°08'815.8
2018-Feb-09 13:30N 08°39' W 015°14'816.1
2018-Feb-09 13:00N 08°45' W 015°20'816.0
2018-Feb-09 12:31N 08°51' W 015°26'12715.9
2018-Feb-09 04:30N 10°20' W 016°57'  
2018-Feb-06 09:43N 27°37' W 015°13'315.9
2018-Feb-06 09:30N 27°40' W 015°11'816.6
2018-Feb-06 09:00N 27°48' W 015°08'816.8
2018-Feb-06 08:30N 27°55' W 015°05'3216.1
2018-Feb-06 06:30N 28°26' W 014°53'1717.0
2018-Feb-06 05:30N 28°43' W 014°48'  
2018-Feb-02 12:48N 49°44' W 003°36'617.4
2018-Feb-02 12:26N 49°47' W 003°28'817.0
2018-Feb-02 11:58N 49°50' W 003°17'816.5
2018-Feb-02 11:31N 49°54' W 003°07'815.6
2018-Feb-02 11:00N 49°58' W 002°56'714.7
2018-Feb-02 10:30N 50°00' W 002°45'713.7
2018-Feb-02 10:00N 50°03' W 002°35'2212.0
2018-Feb-02 08:09N 50°09' W 002°02'211.7
2018-Feb-02 07:59N 50°09' W 001°59'612.1
2018-Feb-02 07:30N 50°11' W 001°50'713.0
2018-Feb-02 07:00N 50°13' W 001°41'714.1
2018-Feb-02 06:30N 50°15' W 001°30'4017.2
2018-Feb-02 04:10N 50°26' W 000°29'317.9
2018-Feb-02 04:00N 50°26' W 000°25'917.5
2018-Feb-02 03:30N 50°29' W 000°12'917.2
2018-Feb-02 03:00N 50°31' E 000°01'816.9
2018-Feb-02 02:30N 50°34' E 000°14'4315.1
2018-Feb-01 23:38N 50°56' E 001°13'214.7
2018-Feb-01 23:30N 50°57' E 001°15'714.7
2018-Feb-01 23:00N 51°02' E 001°23'1717.3
2018-Feb-01 22:00N 51°13' E 001°44'918.7
2018-Feb-01 21:31N 51°21' E 001°54'2713.5
2018-Feb-01 19:30N 51°23' E 002°37'611.4
2018-Feb-01 19:00N 51°23' E 002°46'611.6
2018-Feb-01 18:30N 51°24' E 002°55'611.7
2018-Feb-01 18:00N 51°24' E 003°04'714.5
2018-Feb-01 17:30N 51°25' E 003°16'917.0
2018-Feb-01 17:00N 51°25' E 003°29'510.6
2018-Feb-01 16:30N 51°26' E 003°38'611.3
2018-Feb-01 16:00N 51°22' E 003°44'611.7
2018-Feb-01 15:30N 51°21' E 003°54'611.1
2018-Feb-01 15:00N 51°26' E 003°59'10 6.9
2018-Feb-01 13:30N 51°22' E 004°14'4 8.9
2018-Feb-01 13:00N 51°18' E 004°17'2 4.2
2018-Feb-01 12:31N 51°16' E 004°17'0 0.1
2018-Feb-01 12:01N 51°16' E 004°17'1 1.3
2018-Feb-01 10:59N 51°16' E 004°15'0 0.0
2018-Feb-01 10:29N 51°16' E 004°15'0 0.0
2018-Feb-01 09:59N 51°16' E 004°15'0 0.0
2018-Feb-01 09:30N 51°16' E 004°15'0 0.0
2018-Feb-01 09:00N 51°16' E 004°15'0 0.0
2018-Feb-01 08:27N 51°16' E 004°15'0 0.0
2018-Feb-01 07:30N 51°16' E 004°15'0 0.0
2018-Feb-01 07:00N 51°16' E 004°15'0 0.0
2018-Feb-01 06:30N 51°16' E 004°15'0 0.0
2018-Feb-01 06:00N 51°16' E 004°15'0 0.0
2018-Feb-01 05:30N 51°16' E 004°15'0 0.0
2018-Feb-01 05:00N 51°16' E 004°15'0 0.0
2018-Feb-01 04:30N 51°16' E 004°15'0 0.0
2018-Feb-01 04:00N 51°16' E 004°15'0 0.0
2018-Feb-01 03:00N 51°16' E 004°15'0 0.0
2018-Feb-01 02:30N 51°16' E 004°15'0 0.0
2018-Feb-01 02:00N 51°16' E 004°15'0 0.0
2018-Feb-01 01:30N 51°16' E 004°15'0 0.0
2018-Feb-01 01:00N 51°16' E 004°15'0 0.0
2018-Feb-01 00:30N 51°16' E 004°15'0 0.0
2018-Feb-01 00:00N 51°16' E 004°15'0 0.0
2018-Jan-31 23:00N 51°16' E 004°15'0 0.0
2018-Jan-31 22:30N 51°16' E 004°15'0 0.0
2018-Jan-31 20:59N 51°16' E 004°15'0 0.0
2018-Jan-31 20:29N 51°16' E 004°15'0 0.0
2018-Jan-31 19:56N 51°16' E 004°15'0 0.0
2018-Jan-31 19:29N 51°16' E 004°15'0 0.0
2018-Jan-31 18:56N 51°16' E 004°15'0 0.0
2018-Jan-31 18:29N 51°16' E 004°15'0 0.0
2018-Jan-31 17:56N 51°16' E 004°15'0 0.0
2018-Jan-31 17:26N 51°16' E 004°15'0 0.0
2018-Jan-31 16:59N 51°16' E 004°15'0 0.0
2018-Jan-31 16:29N 51°16' E 004°15'0 0.0
2018-Jan-31 15:59N 51°16' E 004°15'0 0.0
2018-Jan-31 15:26N 51°16' E 004°15'0 0.0
2018-Jan-31 14:59N 51°16' E 004°15'0 0.0
2018-Jan-31 14:29N 51°16' E 004°15'0 0.0
2018-Jan-31 12:59N 51°16' E 004°15'0 0.0
2018-Jan-31 12:26N 51°16' E 004°15'0 0.0
2018-Jan-31 11:59N 51°16' E 004°15'0 0.0
2018-Jan-31 11:29N 51°16' E 004°15'0 0.0
2018-Jan-31 10:59N 51°16' E 004°15'0 0.0
2018-Jan-31 10:23N 51°16' E 004°15'0 0.0
2018-Jan-31 09:53N 51°16' E 004°15'0 0.0
2018-Jan-31 09:29N 51°16' E 004°15'0 0.0
2018-Jan-31 08:53N 51°16' E 004°15'0 0.0
2018-Jan-31 08:29N 51°16' E 004°15'0 0.0
2018-Jan-31 07:59N 51°16' E 004°15'0 0.0
2018-Jan-31 07:29N 51°16' E 004°15'0 0.0
2018-Jan-31 06:59N 51°16' E 004°15'0 0.0
2018-Jan-31 06:29N 51°16' E 004°15'0 0.0
2018-Jan-31 05:59N 51°16' E 004°15'0 0.0
2018-Jan-31 05:29N 51°16' E 004°15'0 0.0
2018-Jan-31 04:59N 51°16' E 004°15'0 0.0
2018-Jan-31 04:26N 51°16' E 004°15'0 0.0
2018-Jan-31 03:59N 51°16' E 004°15'0 0.0
2018-Jan-31 03:29N 51°16' E 004°15'0 0.0
2018-Jan-31 02:59N 51°16' E 004°15'0 0.0
2018-Jan-31 02:29N 51°16' E 004°15'0 0.0
2018-Jan-31 01:59N 51°16' E 004°15'0 0.0
2018-Jan-31 01:29N 51°16' E 004°15'0 0.0
2018-Jan-31 00:56N 51°16' E 004°15'0 0.0
2018-Jan-30 23:59N 51°16' E 004°15'  
Track history (hours):
 
Tides and Currents Weather Stations Pressure Air Temp Water Temp Dewpoint Dewpoint Depression Visibility Wind Speed Wind Dir Waves Ship Positions

Caribbean-star

Last reported at 2018-Feb-09 23:29 UTC. Time now 2018-Feb-19 16:20 UTC.
Position N 07°00' W 013°14'.
Warning: this ship's position is 9 days out of date.

Length 185 m; draft 8.4 m.

Type: Cargo ship. MMSI: 636013068.

Date/timePositionNaut miles runAvg speedWind from/ knotsBaromVisibWave heightAir tempDewpointWater temp
2018-Feb-09 23:29N 07°00' W 013°14'1115.9
2018-Feb-09 22:47N 07°06' W 013°23'016.3
2018-Feb-09 22:46N 07°06' W 013°24'2815.7
2018-Feb-09 21:00N 07°20' W 013°48'1615.9
2018-Feb-09 20:00N 07°28' W 014°01'815.7
2018-Feb-09 19:30N 07°34' W 014°07'2315.4
2018-Feb-09 18:00N 07°50' W 014°23'815.4
2018-Feb-09 17:30N 07°55' W 014°29'1515.4
2018-Feb-09 16:30N 08°06' W 014°40'3915.7
2018-Feb-09 14:00N 08°34' W 015°08'815.8
2018-Feb-09 13:30N 08°39' W 015°14'816.1
2018-Feb-09 13:00N 08°45' W 015°20'816.0
2018-Feb-09 12:31N 08°51' W 015°26'12715.9
2018-Feb-09 04:30N 10°20' W 016°57'  
2018-Feb-06 09:43N 27°37' W 015°13'315.9
2018-Feb-06 09:30N 27°40' W 015°11'816.6
2018-Feb-06 09:00N 27°48' W 015°08'816.8
2018-Feb-06 08:30N 27°55' W 015°05'3216.1
2018-Feb-06 06:30N 28°26' W 014°53'1717.0
2018-Feb-06 05:30N 28°43' W 014°48'  
2018-Feb-02 12:48N 49°44' W 003°36'617.4
2018-Feb-02 12:26N 49°47' W 003°28'817.0
2018-Feb-02 11:58N 49°50' W 003°17'816.5
2018-Feb-02 11:31N 49°54' W 003°07'815.6
2018-Feb-02 11:00N 49°58' W 002°56'714.7
2018-Feb-02 10:30N 50°00' W 002°45'713.7
2018-Feb-02 10:00N 50°03' W 002°35'2212.0
2018-Feb-02 08:09N 50°09' W 002°02'211.7
2018-Feb-02 07:59N 50°09' W 001°59'612.1
2018-Feb-02 07:30N 50°11' W 001°50'713.0
2018-Feb-02 07:00N 50°13' W 001°41'714.1
2018-Feb-02 06:30N 50°15' W 001°30'4017.2
2018-Feb-02 04:10N 50°26' W 000°29'317.9
2018-Feb-02 04:00N 50°26' W 000°25'917.5
2018-Feb-02 03:30N 50°29' W 000°12'917.2
2018-Feb-02 03:00N 50°31' E 000°01'816.9
2018-Feb-02 02:30N 50°34' E 000°14'4315.1
2018-Feb-01 23:38N 50°56' E 001°13'214.7
2018-Feb-01 23:30N 50°57' E 001°15'714.7
2018-Feb-01 23:00N 51°02' E 001°23'1717.3
2018-Feb-01 22:00N 51°13' E 001°44'918.7
2018-Feb-01 21:31N 51°21' E 001°54'2713.5
2018-Feb-01 19:30N 51°23' E 002°37'611.4
2018-Feb-01 19:00N 51°23' E 002°46'611.6
2018-Feb-01 18:30N 51°24' E 002°55'611.7
2018-Feb-01 18:00N 51°24' E 003°04'714.5
2018-Feb-01 17:30N 51°25' E 003°16'917.0
2018-Feb-01 17:00N 51°25' E 003°29'510.6
2018-Feb-01 16:30N 51°26' E 003°38'611.3
2018-Feb-01 16:00N 51°22' E 003°44'611.7
2018-Feb-01 15:30N 51°21' E 003°54'611.1
2018-Feb-01 15:00N 51°26' E 003°59'10 6.9
2018-Feb-01 13:30N 51°22' E 004°14'4 8.9
2018-Feb-01 13:00N 51°18' E 004°17'2 4.2
2018-Feb-01 12:31N 51°16' E 004°17'0 0.1
2018-Feb-01 12:01N 51°16' E 004°17'1 1.3
2018-Feb-01 10:59N 51°16' E 004°15'0 0.0
2018-Feb-01 10:29N 51°16' E 004°15'0 0.0
2018-Feb-01 09:59N 51°16' E 004°15'0 0.0
2018-Feb-01 09:30N 51°16' E 004°15'0 0.0
2018-Feb-01 09:00N 51°16' E 004°15'0 0.0
2018-Feb-01 08:27N 51°16' E 004°15'0 0.0
2018-Feb-01 07:30N 51°16' E 004°15'0 0.0
2018-Feb-01 07:00N 51°16' E 004°15'0 0.0
2018-Feb-01 06:30N 51°16' E 004°15'0 0.0
2018-Feb-01 06:00N 51°16' E 004°15'0 0.0
2018-Feb-01 05:30N 51°16' E 004°15'0 0.0
2018-Feb-01 05:00N 51°16' E 004°15'0 0.0
2018-Feb-01 04:30N 51°16' E 004°15'0 0.0
2018-Feb-01 04:00N 51°16' E 004°15'0 0.0
2018-Feb-01 03:00N 51°16' E 004°15'0 0.0
2018-Feb-01 02:30N 51°16' E 004°15'0 0.0
2018-Feb-01 02:00N 51°16' E 004°15'0 0.0
2018-Feb-01 01:30N 51°16' E 004°15'0 0.0
2018-Feb-01 01:00N 51°16' E 004°15'0 0.0
2018-Feb-01 00:30N 51°16' E 004°15'0 0.0
2018-Feb-01 00:00N 51°16' E 004°15'0 0.0
2018-Jan-31 23:00N 51°16' E 004°15'0 0.0
2018-Jan-31 22:30N 51°16' E 004°15'0 0.0
2018-Jan-31 20:59N 51°16' E 004°15'0 0.0
2018-Jan-31 20:29N 51°16' E 004°15'0 0.0
2018-Jan-31 19:56N 51°16' E 004°15'0 0.0
2018-Jan-31 19:29N 51°16' E 004°15'0 0.0
2018-Jan-31 18:56N 51°16' E 004°15'0 0.0
2018-Jan-31 18:29N 51°16' E 004°15'0 0.0
2018-Jan-31 17:56N 51°16' E 004°15'0 0.0
2018-Jan-31 17:26N 51°16' E 004°15'0 0.0
2018-Jan-31 16:59N 51°16' E 004°15'0 0.0
2018-Jan-31 16:29N 51°16' E 004°15'0 0.0
2018-Jan-31 15:59N 51°16' E 004°15'0 0.0
2018-Jan-31 15:26N 51°16' E 004°15'0 0.0
2018-Jan-31 14:59N 51°16' E 004°15'0 0.0
2018-Jan-31 14:29N 51°16' E 004°15'0 0.0
2018-Jan-31 12:59N 51°16' E 004°15'0 0.0
2018-Jan-31 12:26N 51°16' E 004°15'0 0.0
2018-Jan-31 11:59N 51°16' E 004°15'0 0.0
2018-Jan-31 11:29N 51°16' E 004°15'0 0.0
2018-Jan-31 10:59N 51°16' E 004°15'0 0.0
2018-Jan-31 10:23N 51°16' E 004°15'0 0.0
2018-Jan-31 09:53N 51°16' E 004°15'0 0.0
2018-Jan-31 09:29N 51°16' E 004°15'0 0.0
2018-Jan-31 08:53N 51°16' E 004°15'0 0.0
2018-Jan-31 08:29N 51°16' E 004°15'0 0.0
2018-Jan-31 07:59N 51°16' E 004°15'0 0.0
2018-Jan-31 07:29N 51°16' E 004°15'0 0.0
2018-Jan-31 06:59N 51°16' E 004°15'0 0.0
2018-Jan-31 06:29N 51°16' E 004°15'0 0.0
2018-Jan-31 05:59N 51°16' E 004°15'0 0.0
2018-Jan-31 05:29N 51°16' E 004°15'0 0.0
2018-Jan-31 04:59N 51°16' E 004°15'0 0.0
2018-Jan-31 04:26N 51°16' E 004°15'0 0.0
2018-Jan-31 03:59N 51°16' E 004°15'0 0.0
2018-Jan-31 03:29N 51°16' E 004°15'0 0.0
2018-Jan-31 02:59N 51°16' E 004°15'0 0.0
2018-Jan-31 02:29N 51°16' E 004°15'0 0.0
2018-Jan-31 01:59N 51°16' E 004°15'0 0.0
2018-Jan-31 01:29N 51°16' E 004°15'0 0.0
2018-Jan-31 00:56N 51°16' E 004°15'0 0.0
2018-Jan-30 23:59N 51°16' E 004°15'  

Dump ship's entire track history